Time;durP1;ratioP1;P1;durP2;ratioP2;P2;SDS_P1;SDS_P2;PMS_P1;PMS_P2;Temp;Humidity;BMP_temperature;BMP_pressure;BME280_temperature;BME280_humidity;BME280_pressure;Samples;Min_cycle;Max_cycle;Signal;HPM_P1;HPM_P2
2023/09/17 00:02:34;;;;;;;16.80;12.30;;;;;;;14.32;100.00;99156.77;137372;1275;22355;-82
2023/09/17 00:05:37;;;;;;;14.90;12.20;;;;;;;14.30;100.00;99154.66;137401;1274;22545;-83
2023/09/17 00:08:39;;;;;;;14.30;12.50;;;;;;;14.28;100.00;99152.39;137402;1275;22585;-82
2023/09/17 00:11:42;;;;;;;15.50;12.20;;;;;;;14.25;100.00;99150.45;137510;1275;22140;-81
2023/09/17 00:14:44;;;;;;;14.70;12.20;;;;;;;14.22;100.00;99145.90;137462;1275;22649;-83
2023/09/17 00:17:47;;;;;;;15.20;12.60;;;;;;;14.20;100.00;99138.38;137573;1275;22171;-83
2023/09/17 00:20:49;;;;;;;13.70;12.20;;;;;;;14.18;100.00;99135.21;137529;1274;22654;-82
2023/09/17 00:23:52;;;;;;;17.00;12.40;;;;;;;14.15;100.00;99133.28;137513;1274;22925;-83
2023/09/17 00:26:54;;;;;;;14.60;12.80;;;;;;;14.14;100.00;99137.48;137593;1275;22257;-81
2023/09/17 00:29:57;;;;;;;18.60;12.40;;;;;;;14.15;100.00;99139.58;137570;1274;22233;-83
2023/09/17 00:32:59;;;;;;;17.10;13.00;;;;;;;14.14;100.00;99139.93;137517;1275;22243;-81
2023/09/17 00:36:02;;;;;;;15.50;13.00;;;;;;;14.14;100.00;99133.98;137406;1274;22775;-83
2023/09/17 00:39:04;;;;;;;16.30;12.40;;;;;;;14.13;100.00;99137.13;137506;1274;22208;-84
2023/09/17 00:42:09;;;;;;;17.20;12.60;;;;;;;14.11;100.00;99137.13;137372;1274;22531;-83
2023/09/17 00:45:12;;;;;;;17.00;12.50;;;;;;;14.10;100.00;99137.81;137590;1275;22241;-83
2023/09/17 00:48:14;;;;;;;14.20;12.70;;;;;;;14.08;100.00;99139.04;137400;1274;22161;-83
2023/09/17 00:51:17;;;;;;;15.00;13.10;;;;;;;14.05;100.00;99139.73;137509;1274;22167;-82
2023/09/17 00:54:19;;;;;;;16.60;12.80;;;;;;;14.01;100.00;99133.25;137464;1275;22560;-80
2023/09/17 00:57:22;;;;;;;14.70;12.20;;;;;;;13.98;100.00;99129.92;137530;1275;22260;-83
2023/09/17 01:00:25;;;;;;;17.40;13.20;;;;;;;13.96;100.00;99134.11;137519;1274;22281;-82
2023/09/17 01:03:28;;;;;;;16.70;12.60;;;;;;;13.93;100.00;99132.88;137466;1274;22223;-85
2023/09/17 01:06:30;;;;;;;16.30;11.90;;;;;;;13.91;100.00;99130.95;137445;1274;22645;-84
2023/09/17 01:09:33;;;;;;;14.90;12.00;;;;;;;13.91;100.00;99132.17;137295;1274;22840;-85
2023/09/17 01:12:35;;;;;;;14.80;12.60;;;;;;;13.90;100.00;99126.75;137270;1274;22549;-83
2023/09/17 01:15:38;;;;;;;15.30;12.60;;;;;;;13.88;100.00;99127.95;137453;1275;22591;-82
2023/09/17 01:18:42;;;;;;;16.80;13.20;;;;;;;13.86;100.00;99127.77;137405;1275;22435;-83
2023/09/17 01:21:44;;;;;;;17.90;13.30;;;;;;;13.84;100.00;99125.48;137522;1275;22174;-83
2023/09/17 01:24:47;;;;;;;13.40;12.00;;;;;;;13.83;100.00;99129.66;137426;1275;22429;-83
2023/09/17 01:27:49;;;;;;;14.80;12.10;;;;;;;13.82;100.00;99130.18;137374;1274;22259;-83
2023/09/17 01:30:52;;;;;;;17.30;13.00;;;;;;;13.80;100.00;99128.08;137545;1275;22225;-83
2023/09/17 01:33:54;;;;;;;16.10;12.40;;;;;;;13.77;100.00;99123.16;137443;1274;22242;-83
2023/09/17 01:36:57;;;;;;;14.90;13.10;;;;;;;13.74;100.00;99117.21;137468;1275;22200;-84
2023/09/17 01:40:00;;;;;;;18.30;13.70;;;;;;;13.71;100.00;99121.23;137468;1275;22241;-82
2023/09/17 01:43:04;;;;;;;14.70;12.70;;;;;;;13.68;100.00;99119.65;137440;1275;22180;-83
2023/09/17 01:46:06;;;;;;;14.50;12.50;;;;;;;13.65;100.00;99119.27;137353;1275;22563;-82
2023/09/17 01:49:09;;;;;;;19.20;13.20;;;;;;;13.63;100.00;99119.27;137472;1275;22902;-84
2023/09/17 01:52:20;;;;;;;15.80;12.90;;;;;;;13.60;100.00;99119.09;137323;1275;22603;-82
2023/09/17 01:55:23;;;;;;;15.50;13.50;;;;;;;13.58;100.00;99114.89;137360;1275;22190;-83
2023/09/17 01:58:25;;;;;;;15.10;13.20;;;;;;;13.56;100.00;99111.38;137479;1274;22450;-83
2023/09/17 02:01:28;;;;;;;14.30;12.80;;;;;;;13.53;100.00;99111.37;137326;1275;22934;-84
2023/09/17 02:04:31;;;;;;;16.60;12.60;;;;;;;13.50;100.00;99109.96;137519;1275;22145;-83
2023/09/17 02:07:33;;;;;;;19.30;14.00;;;;;;;13.48;100.00;99110.47;137491;1274;22270;-82
2023/09/17 02:10:36;;;;;;;15.80;13.20;;;;;;;13.47;100.00;99110.64;137378;1275;22238;-83
2023/09/17 02:13:38;;;;;;;14.90;12.70;;;;;;;13.45;100.00;99107.84;137293;1275;22225;-82
2023/09/17 02:16:41;;;;;;;17.10;13.20;;;;;;;13.43;100.00;99108.00;137499;1275;22631;-84
2023/09/17 02:19:44;;;;;;;18.20;13.20;;;;;;;13.43;100.00;99101.01;137530;1274;22151;-83
2023/09/17 02:22:46;;;;;;;16.90;13.30;;;;;;;13.43;100.00;99104.16;137306;1275;22537;-83
2023/09/17 02:25:49;;;;;;;16.80;13.80;;;;;;;13.43;100.00;99102.76;137358;1275;22210;-82
2023/09/17 02:28:51;;;;;;;18.00;13.20;;;;;;;13.41;100.00;99099.42;137528;1275;22200;-84
2023/09/17 02:31:54;;;;;;;15.10;13.40;;;;;;;13.37;100.00;99099.58;137509;1274;22210;-84
2023/09/17 02:34:57;;;;;;;14.80;12.60;;;;;;;13.36;100.00;99102.55;137416;1275;22200;-83
2023/09/17 02:38:00;;;;;;;15.90;13.20;;;;;;;13.36;100.00;99103.42;137507;1275;22620;-84
2023/09/17 02:41:04;;;;;;;20.40;14.20;;;;;;;13.36;100.00;99101.15;137450;1275;22184;-85
2023/09/17 02:44:06;;;;;;;17.50;13.90;;;;;;;13.36;100.00;99099.92;137526;1275;22842;-86
2023/09/17 02:47:09;;;;;;;14.30;12.80;;;;;;;13.35;100.00;99105.17;137558;1274;22288;-84
2023/09/17 02:50:11;;;;;;;16.80;13.30;;;;;;;13.34;100.00;99104.11;137463;1275;22241;-85
2023/09/17 02:53:14;;;;;;;17.80;13.30;;;;;;;13.31;100.00;99109.52;137397;1275;22187;-85
2023/09/17 02:56:16;;;;;;;19.30;14.10;;;;;;;13.29;100.00;99110.55;137394;1275;22475;-82
2023/09/17 02:59:19;;;;;;;15.10;13.10;;;;;;;13.29;100.00;99112.83;137405;1275;22228;-83
2023/09/17 03:02:22;;;;;;;15.50;13.80;;;;;;;13.28;100.00;99113.35;137314;1275;22047;-83
2023/09/17 03:05:24;;;;;;;21.30;13.60;;;;;;;13.27;100.00;99111.42;137319;1275;22344;-83
2023/09/17 03:08:27;;;;;;;15.10;13.40;;;;;;;13.28;100.00;99110.38;137499;1275;22224;-83
2023/09/17 03:11:29;;;;;;;19.10;13.40;;;;;;;13.27;100.00;99111.77;137416;1275;22557;-84
2023/09/17 03:14:32;;;;;;;16.00;13.50;;;;;;;13.27;100.00;99107.05;137488;1274;22171;-82
2023/09/17 03:17:35;;;;;;;15.10;13.30;;;;;;;13.25;100.00;99100.92;137493;1275;22275;-84
2023/09/17 03:20:37;;;;;;;19.30;13.30;;;;;;;13.23;100.00;99097.77;137305;1275;22323;-83
2023/09/17 03:23:40;;;;;;;16.90;13.60;;;;;;;13.21;100.00;99101.08;137411;1275;22484;-82
2023/09/17 03:26:43;;;;;;;15.90;12.80;;;;;;;13.18;100.00;99094.59;137450;1275;22213;-83
2023/09/17 03:29:45;;;;;;;15.80;13.50;;;;;;;13.16;100.00;99094.73;137367;1275;22228;-83
2023/09/17 03:32:48;;;;;;;16.20;13.60;;;;;;;13.17;100.00;99098.95;137417;1274;22521;-83
2023/09/17 03:35:51;;;;;;;22.70;13.60;;;;;;;13.16;100.00;99100.85;137352;1275;22230;-83
2023/09/17 03:38:53;;;;;;;16.10;14.00;;;;;;;13.14;100.00;99102.92;137391;1275;22249;-82
2023/09/17 03:41:56;;;;;;;19.20;13.90;;;;;;;13.12;100.00;99099.24;137375;1275;22307;-82
2023/09/17 03:44:58;;;;;;;16.90;14.60;;;;;;;13.11;100.00;99099.59;137307;1275;22189;-83
2023/09/17 03:48:01;;;;;;;16.40;13.40;;;;;;;13.10;100.00;99096.79;137288;1275;23218;-83
2023/09/17 03:51:04;;;;;;;19.40;14.60;;;;;;;13.10;100.00;99098.17;137341;1275;22235;-83
2023/09/17 03:54:06;;;;;;;17.10;14.30;;;;;;;13.11;100.00;99099.23;137474;1275;22184;-83
2023/09/17 03:57:13;;;;;;;17.70;13.20;;;;;;;13.14;100.00;99102.23;137448;1275;22138;-83
2023/09/17 04:00:15;;;;;;;18.10;14.00;;;;;;;13.18;100.00;99102.63;137446;1275;22610;-81
2023/09/17 04:03:19;;;;;;;14.70;12.90;;;;;;;13.22;100.00;99107.20;137260;1275;22168;-81
2023/09/17 04:06:21;;;;;;;17.40;13.70;;;;;;;13.26;100.00;99108.96;137432;1275;22405;-82
2023/09/17 04:09:25;;;;;;;17.30;14.10;;;;;;;13.30;100.00;99105.48;137361;1275;22539;-82
2023/09/17 04:12:27;;;;;;;15.10;13.10;;;;;;;13.33;100.00;99109.00;137248;1275;22173;-82
2023/09/17 04:15:30;;;;;;;16.90;13.70;;;;;;;13.34;100.00;99111.98;137498;1275;22344;-81
2023/09/17 04:18:32;;;;;;;16.70;13.30;;;;;;;13.34;100.00;99113.72;137459;1274;22749;-82
2023/09/17 04:21:35;;;;;;;16.60;14.00;;;;;;;13.35;100.00;99116.17;137474;1275;22131;-81
2023/09/17 04:24:38;;;;;;;19.90;14.70;;;;;;;13.35;100.00;99116.70;137367;1275;22382;-81
2023/09/17 04:27:41;;;;;;;17.60;13.10;;;;;;;13.35;100.00;99119.15;137337;1274;22172;-83
2023/09/17 04:30:44;;;;;;;15.20;13.30;;;;;;;13.36;100.00;99122.13;137461;1275;22161;-82
2023/09/17 04:33:46;;;;;;;17.00;13.60;;;;;;;13.39;100.00;99119.88;137417;1272;22365;-83
2023/09/17 04:36:50;;;;;;;17.50;13.70;;;;;;;13.41;100.00;99117.95;137516;1275;22255;-81
2023/09/17 04:39:52;;;;;;;17.00;14.10;;;;;;;13.42;100.00;99120.92;137424;1275;22994;-81
2023/09/17 04:42:55;;;;;;;17.60;14.20;;;;;;;13.43;100.00;99122.33;137469;1275;23075;-81
2023/09/17 04:45:59;;;;;;;21.50;14.10;;;;;;;13.45;100.00;99122.52;137480;1274;22248;-83
2023/09/17 04:49:02;;;;;;;16.90;13.50;;;;;;;13.49;100.00;99126.91;137432;1275;22593;-82
2023/09/17 04:52:05;;;;;;;15.10;13.40;;;;;;;13.50;100.00;99131.80;137503;1272;22189;-82
2023/09/17 04:55:07;;;;;;;17.70;13.80;;;;;;;13.52;100.00;99131.30;137488;1275;25953;-83
2023/09/17 04:58:10;;;;;;;15.40;13.60;;;;;;;13.56;100.00;99132.71;137424;1275;22240;-82
2023/09/17 05:01:12;;;;;;;15.20;13.20;;;;;;;13.64;100.00;99133.79;137345;1275;22579;-82
2023/09/17 05:04:15;;;;;;;15.30;13.50;;;;;;;13.73;100.00;99138.73;137313;1275;22702;-82
2023/09/17 05:07:17;;;;;;;17.50;13.10;;;;;;;13.80;100.00;99140.67;137487;1275;22267;-82
2023/09/17 05:10:20;;;;;;;18.90;13.50;;;;;;;13.92;100.00;99146.86;137575;1275;22227;-82
2023/09/17 05:13:22;;;;;;;16.10;14.40;;;;;;;14.04;100.00;99150.05;137388;1275;22226;-82
2023/09/17 05:16:25;;;;;;;14.80;13.30;;;;;;;14.16;100.00;99153.59;137541;1275;22489;-82
2023/09/17 05:19:27;;;;;;;15.20;13.50;;;;;;;14.28;100.00;99152.04;137457;1275;22227;-83
2023/09/17 05:22:31;;;;;;;14.10;12.60;;;;;;;14.45;100.00;99154.70;137470;1275;22281;-81
2023/09/17 05:25:34;;;;;;;15.70;13.20;;;;;;;14.66;100.00;99156.66;137482;1274;22489;-82
2023/09/17 05:28:36;;;;;;;19.20;13.80;;;;;;;14.88;100.00;99156.00;137270;1274;22402;-82
2023/09/17 05:31:39;;;;;;;15.70;13.10;;;;;;;15.13;100.00;99157.36;137313;1275;22571;-84
2023/09/17 05:34:42;;;;;;;18.50;13.30;;;;;;;15.37;100.00;99155.39;137040;1275;22444;-83
2023/09/17 05:37:44;;;;;;;13.60;12.20;;;;;;;15.59;100.00;99164.83;137595;1275;22743;-83
2023/09/17 05:40:47;;;;;;;15.00;13.00;;;;;;;15.74;100.00;99168.67;137334;1275;22128;-82
2023/09/17 05:43:49;;;;;;;14.10;11.90;;;;;;;15.86;100.00;99172.48;137539;1275;22221;-81
2023/09/17 05:46:52;;;;;;;13.90;12.40;;;;;;;15.97;100.00;99169.45;137249;1275;22657;-82
2023/09/17 05:49:55;;;;;;;13.30;11.70;;;;;;;16.08;100.00;99178.53;137293;1275;22196;-81
2023/09/17 05:52:58;;;;;;;15.20;12.20;;;;;;;16.19;100.00;99184.44;137424;1275;22373;-82
2023/09/17 05:56:01;;;;;;;13.50;11.90;;;;;;;16.32;100.00;99184.54;137406;1275;24362;-82
2023/09/17 05:59:03;;;;;;;13.60;12.20;;;;;;;16.45;100.00;99180.96;137353;1275;22949;-82
2023/09/17 06:02:06;;;;;;;13.70;12.10;;;;;;;16.57;100.00;99180.91;137383;1275;22184;-82
2023/09/17 06:05:09;;;;;;;12.10;10.90;;;;;;;16.65;100.00;99180.70;137528;1274;22250;-82
2023/09/17 06:08:11;;;;;;;14.00;12.50;;;;;;;16.74;100.00;99182.92;137460;1275;22527;-82
2023/09/17 06:11:14;;;;;;;12.90;11.50;;;;;;;16.82;100.00;99180.22;137261;1275;22185;-82
2023/09/17 06:14:16;;;;;;;12.40;11.10;;;;;;;16.93;100.00;99184.88;137315;1275;23540;-83
2023/09/17 06:17:19;;;;;;;14.00;11.60;;;;;;;17.03;100.00;99188.66;137498;1275;22200;-83
2023/09/17 06:20:21;;;;;;;15.40;12.00;;;;;;;17.14;100.00;99188.21;137372;1275;22995;-83
2023/09/17 06:23:24;;;;;;;13.70;11.90;;;;;;;17.26;100.00;99188.98;137353;1274;22584;-82
2023/09/17 06:26:26;;;;;;;13.40;12.00;;;;;;;17.37;100.00;99188.54;137385;1275;22144;-83
2023/09/17 06:29:29;;;;;;;13.40;11.30;;;;;;;17.48;100.00;99187.20;137450;1275;22129;-82
2023/09/17 06:32:31;;;;;;;17.40;11.90;;;;;;;17.60;100.00;99186.89;137389;1272;22191;-82
2023/09/17 06:35:34;;;;;;;12.80;11.50;;;;;;;17.69;100.00;99190.34;137410;1275;22245;-83
2023/09/17 06:38:36;;;;;;;13.30;11.10;;;;;;;17.74;100.00;99185.89;137522;1275;22259;-82
2023/09/17 06:41:39;;;;;;;11.70;10.60;;;;;;;17.83;100.00;99191.24;137540;1274;22182;-83
2023/09/17 06:44:41;;;;;;;12.60;11.20;;;;;;;17.96;100.00;99190.73;137549;1275;22197;-83
2023/09/17 06:47:44;;;;;;;14.30;11.20;;;;;;;18.14;100.00;99188.21;137543;1274;22350;-83
2023/09/17 06:50:46;;;;;;;12.30;11.00;;;;;;;18.38;100.00;99185.08;137460;1275;22127;-82
2023/09/17 06:53:49;;;;;;;12.50;11.10;;;;;;;18.71;100.00;99186.56;137415;1275;22169;-83
2023/09/17 06:56:52;;;;;;;14.00;10.40;;;;;;;19.03;100.00;99185.70;137398;1272;186925;-82
2023/09/17 06:59:54;;;;;;;13.70;10.70;;;;;;;19.36;100.00;99183.38;137434;1275;22305;-81
2023/09/17 07:02:57;;;;;;;11.70;10.60;;;;;;;19.60;100.00;99190.71;137381;1275;22603;-83
2023/09/17 07:06:01;;;;;;;10.80;9.70;;;;;;;19.80;100.00;99199.70;137146;1275;23001;-83
2023/09/17 07:09:04;;;;;;;11.10;9.90;;;;;;;20.00;100.00;99193.67;137403;1274;22608;-84
2023/09/17 07:12:06;;;;;;;10.60;9.50;;;;;;;20.32;100.00;99194.06;137328;1275;22525;-83
2023/09/17 07:15:10;;;;;;;11.00;9.90;;;;;;;20.58;100.00;99200.40;137444;1275;22369;-84
2023/09/17 07:18:12;;;;;;;12.00;9.20;;;;;;;20.67;100.00;99194.52;137485;1275;22141;-84
2023/09/17 07:21:15;;;;;;;12.00;10.10;;;;;;;20.73;100.00;99193.66;137553;1275;22243;-83
2023/09/17 07:24:18;;;;;;;12.60;10.10;;;;;;;20.79;100.00;99195.14;137436;1275;22520;-84
2023/09/17 07:27:20;;;;;;;10.20;9.20;;;;;;;20.84;100.00;99198.90;137372;1275;22198;-83
2023/09/17 07:30:23;;;;;;;12.10;9.80;;;;;;;21.08;100.00;99195.33;137533;1275;22223;-83
2023/09/17 07:33:25;;;;;;;14.80;10.30;;;;;;;21.37;100.00;99191.98;137510;1275;22254;-84
2023/09/17 07:36:28;;;;;;;11.70;9.40;;;;;;;21.67;100.00;99197.71;137132;1274;22559;-82
2023/09/17 07:39:30;;;;;;;9.90;8.90;;;;;;;21.96;100.00;99198.34;137594;1275;22161;-82
2023/09/17 07:42:33;;;;;;;11.10;8.70;;;;;;;22.20;100.00;99191.98;137484;1275;22445;-82
2023/09/17 07:45:35;;;;;;;18.60;9.30;;;;;;;22.49;100.00;99195.89;137557;1275;22181;-79
2023/09/17 07:48:38;;;;;;;11.30;8.20;;;;;;;22.82;100.00;99193.30;137569;1275;22159;-81
2023/09/17 07:51:40;;;;;;;12.80;8.60;;;;;;;23.14;100.00;99190.98;137419;1275;22420;-82
2023/09/17 07:54:43;;;;;;;10.50;7.70;;;;;;;23.46;100.00;99188.89;137511;1275;22384;-81
2023/09/17 07:57:46;;;;;;;8.70;7.80;;;;;;;23.71;100.00;99190.69;137436;1275;22771;-81
2023/09/17 08:00:48;;;;;;;7.70;6.90;;;;;;;23.80;100.00;99192.66;137520;1275;22394;-81
2023/09/17 08:03:51;;;;;;;7.50;6.80;;;;;;;23.81;100.00;99190.66;137495;1275;22258;-81
2023/09/17 08:06:53;;;;;;;7.90;6.40;;;;;;;23.98;100.00;99187.71;137431;1275;22660;-80
2023/09/17 08:09:56;;;;;;;6.50;5.90;;;;;;;24.19;100.00;99182.65;137290;1275;22614;-80
2023/09/17 08:12:58;;;;;;;9.60;6.40;;;;;;;24.36;100.00;99184.04;137482;1275;22268;-81
2023/09/17 08:16:01;;;;;;;7.80;6.30;;;;;;;24.49;100.00;99184.59;137394;1275;22573;-79
2023/09/17 08:19:03;;;;;;;6.50;5.90;;;;;;;24.61;100.00;99184.66;137415;1275;22179;-81
2023/09/17 08:22:05;;;;;;;7.00;6.30;;;;;;;24.74;100.00;99183.06;137460;1275;22295;-80
2023/09/17 08:25:08;;;;;;;7.40;6.70;;;;;;;24.78;72.23;99185.02;137505;1272;22228;-80
2023/09/17 08:28:15;;;;;;;6.90;6.10;;;;;;;24.84;65.64;99184.63;137484;1275;22696;-80
2023/09/17 08:31:18;;;;;;;6.00;5.40;;;;;;;24.98;64.67;99184.23;137533;1275;22160;-80
2023/09/17 08:34:21;;;;;;;;;;;;;;;25.05;63.40;99185.20;137480;1275;22495;-81
2023/09/17 08:37:26;;;;;;;6.20;5.50;;;;;;;25.03;62.57;99182.61;137457;1275;22431;-81
2023/09/17 08:40:29;;;;;;;6.60;5.20;;;;;;;25.13;62.87;99183.08;137422;1275;22217;-81
2023/09/17 08:43:31;;;;;;;6.20;5.40;;;;;;;25.23;62.38;99180.37;137453;1275;22311;-80
2023/09/17 08:46:37;;;;;;;5.50;5.10;;;;;;;25.28;61.94;99182.66;137394;1275;22452;-81
2023/09/17 08:49:40;;;;;;;6.00;5.50;;;;;;;25.27;60.60;99185.89;137454;1274;22160;-81
2023/09/17 08:52:42;;;;;;;5.00;4.60;;;;;;;25.18;59.88;99188.60;137587;1274;22167;-81
2023/09/17 08:55:45;;;;;;;4.70;4.30;;;;;;;25.16;59.74;99187.78;137558;1275;22264;-81
2023/09/17 08:58:48;;;;;;;4.70;4.20;;;;;;;25.23;58.98;99187.50;137584;1275;22280;-81
2023/09/17 09:01:50;;;;;;;7.30;4.90;;;;;;;25.34;58.84;99180.41;137237;1275;22527;-81
2023/09/17 09:04:53;;;;;;;4.70;4.10;;;;;;;25.36;57.90;99179.98;137519;1274;22389;-83
2023/09/17 09:07:56;;;;;;;5.50;5.00;;;;;;;25.42;58.61;99181.17;137601;1275;22452;-81
2023/09/17 09:10:58;;;;;;;5.70;5.10;;;;;;;25.59;58.19;99179.88;137434;1274;22632;-81
2023/09/17 09:14:01;;;;;;;5.90;5.00;;;;;;;25.64;57.21;99175.23;137542;1275;22164;-80
2023/09/17 09:17:03;;;;;;;4.80;4.40;;;;;;;25.60;57.24;99179.29;137369;1275;25274;-81
2023/09/17 09:20:06;;;;;;;6.40;4.90;;;;;;;25.68;57.81;99178.06;137397;1275;22521;-81
2023/09/17 09:23:08;;;;;;;4.90;4.40;;;;;;;25.79;57.44;99174.77;137327;1275;22243;-81
2023/09/17 09:26:11;;;;;;;5.20;4.80;;;;;;;25.77;56.79;99175.02;137390;1275;22408;-81
2023/09/17 09:29:13;;;;;;;4.80;4.40;;;;;;;25.76;56.90;99175.23;137432;1275;22569;-81
2023/09/17 09:32:16;;;;;;;5.10;4.30;;;;;;;25.81;56.54;99174.82;137438;1275;22587;-81
2023/09/17 09:35:18;;;;;;;5.00;4.50;;;;;;;25.86;56.40;99174.05;137293;1275;22445;-80
2023/09/17 09:38:21;;;;;;;6.40;4.10;;;;;;;25.96;56.04;99170.41;137658;1275;22405;-80
2023/09/17 09:41:23;;;;;;;7.10;4.50;;;;;;;25.96;55.32;99168.27;137255;1275;22592;-80
2023/09/17 09:44:26;;;;;;;5.40;4.20;;;;;;;25.86;55.07;99166.94;137388;1273;22308;-81
2023/09/17 09:47:28;;;;;;;4.30;3.90;;;;;;;25.91;55.12;99165.64;137432;1274;22175;-81
2023/09/17 09:50:31;;;;;;;4.50;4.20;;;;;;;25.90;54.50;99162.65;137320;1275;22265;-81
2023/09/17 09:53:33;;;;;;;4.80;4.30;;;;;;;25.92;54.98;99164.51;137365;1274;22256;-81
2023/09/17 09:56:36;;;;;;;4.80;4.40;;;;;;;26.07;55.04;99162.45;137436;1275;22177;-81
2023/09/17 09:59:38;;;;;;;4.50;4.20;;;;;;;25.98;55.00;99159.64;137256;1275;22232;-80
2023/09/17 10:02:41;;;;;;;4.80;4.40;;;;;;;25.93;55.52;99158.05;137355;1275;22534;-80
2023/09/17 10:05:44;;;;;;;4.60;4.20;;;;;;;25.84;55.45;99156.17;137381;1275;22397;-80
2023/09/17 10:08:47;;;;;;;4.40;4.10;;;;;;;26.02;55.07;99158.00;137312;1274;23008;-80
2023/09/17 10:11:49;;;;;;;5.70;3.30;;;;;;;26.16;54.75;99161.14;137294;1275;22580;-81
2023/09/17 10:14:52;;;;;;;3.90;3.50;;;;;;;26.08;54.58;99162.23;137365;1274;22616;-79
2023/09/17 10:17:54;;;;;;;8.20;3.30;;;;;;;26.25;54.17;99163.92;137402;1275;22211;-81
2023/09/17 10:20:57;;;;;;;3.60;3.30;;;;;;;26.60;53.50;99156.57;137516;1275;22182;-81
2023/09/17 10:23:59;;;;;;;4.40;3.20;;;;;;;26.81;53.16;99153.20;137466;1274;22151;-81
2023/09/17 10:27:02;;;;;;;6.00;3.90;;;;;;;26.65;52.30;99152.90;137412;1271;22856;-81
2023/09/17 10:30:06;;;;;;;4.80;3.50;;;;;;;26.45;52.68;99155.70;137410;1275;22566;-82
2023/09/17 10:33:09;;;;;;;3.20;3.00;;;;;;;26.38;53.07;99156.39;137464;1275;22301;-81
2023/09/17 10:36:11;;;;;;;3.60;3.30;;;;;;;26.30;52.27;99153.16;137441;1275;22283;-81
2023/09/17 10:39:14;;;;;;;3.80;3.50;;;;;;;26.18;52.52;99154.45;137400;1274;22255;-81
2023/09/17 10:42:17;;;;;;;;;;;;;;;26.09;52.99;99157.02;137368;1274;22533;-81
2023/09/17 10:45:19;;;;;;;3.50;3.30;;;;;;;26.05;53.16;99155.41;137480;1275;22226;-81
2023/09/17 10:48:22;;;;;;;4.00;3.70;;;;;;;26.08;54.15;99163.27;137512;1274;22500;-80
2023/09/17 10:51:24;;;;;;;4.40;4.00;;;;;;;26.07;54.81;99161.23;137545;1275;22782;-81
2023/09/17 10:54:27;;;;;;;4.70;4.30;;;;;;;26.07;54.94;99160.87;137303;1275;22529;-81
2023/09/17 10:57:29;;;;;;;4.60;3.90;;;;;;;26.02;55.11;99160.01;137492;1274;22201;-79
2023/09/17 11:00:34;;;;;;;4.80;4.40;;;;;;;25.89;55.56;99161.29;137458;1274;22412;-80
2023/09/17 11:03:37;;;;;;;4.60;3.50;;;;;;;25.92;55.81;99160.45;137380;1274;22555;-80
2023/09/17 11:06:40;;;;;;;5.30;3.80;;;;;;;25.99;55.45;99165.64;137506;1274;22185;-80
2023/09/17 11:09:42;;;;;;;7.10;4.00;;;;;;;25.95;55.50;99165.09;137550;1275;22239;-81
2023/09/17 11:12:45;;;;;;;4.40;3.40;;;;;;;25.89;55.65;99166.62;137516;1274;22375;-82
2023/09/17 11:15:48;;;;;;;3.80;3.60;;;;;;;25.92;55.30;99164.70;137418;1275;22407;-80
2023/09/17 11:18:51;;;;;;;3.70;3.50;;;;;;;25.98;55.37;99161.95;137552;1275;22218;-80
2023/09/17 11:21:53;;;;;;;5.00;3.80;;;;;;;26.11;55.75;99160.31;137490;1274;22543;-80
2023/09/17 11:24:56;;;;;;;3.30;3.10;;;;;;;26.52;54.88;99158.73;137454;1275;22250;-81
2023/09/17 11:27:58;;;;;;;3.50;3.20;;;;;;;27.03;53.67;99163.41;137385;1274;22213;-81
2023/09/17 11:31:02;;;;;;;4.00;3.50;;;;;;;27.43;52.41;99155.66;137440;1274;22320;-80
2023/09/17 11:34:04;;;;;;;;;;;;;;;27.64;51.04;99154.58;137484;1274;22512;-80
2023/09/17 11:37:07;;;;;;;4.50;3.00;;;;;;;27.51;51.29;99154.70;137358;1274;22543;-80
2023/09/17 11:40:10;;;;;;;3.90;3.60;;;;;;;27.54;51.22;99156.70;137217;1274;22540;-80
2023/09/17 11:43:12;;;;;;;3.60;3.30;;;;;;;27.74;51.41;99150.31;137448;1275;22390;-81
2023/09/17 11:46:15;;;;;;;3.90;3.30;;;;;;;28.01;50.85;99151.20;137472;1274;22376;-81
2023/09/17 11:49:22;;;;;;;3.30;3.10;;;;;;;28.12;50.12;99150.42;137494;1274;22291;-81
2023/09/17 11:52:25;;;;;;;4.20;3.20;;;;;;;27.90;49.74;99150.69;137395;1274;22429;-81
2023/09/17 11:55:29;;;;;;;3.50;3.20;;;;;;;27.78;49.73;99146.70;137480;1274;22553;-80
2023/09/17 11:58:33;;;;;;;5.00;3.10;;;;;;;27.90;49.46;99140.86;137443;1275;22299;-82
2023/09/17 12:01:36;;;;;;;3.60;3.30;;;;;;;28.08;48.93;99136.52;137438;1274;22657;-79
2023/09/17 12:04:38;;;;;;;3.30;3.00;;;;;;;28.09;48.83;99138.42;137412;1275;22480;-80
2023/09/17 12:07:41;;;;;;;3.10;2.90;;;;;;;28.26;48.24;99138.38;137482;1275;22171;-80
2023/09/17 12:10:49;;;;;;;3.30;3.00;;;;;;;28.35;47.89;99135.75;137320;1275;22258;-81
2023/09/17 12:13:53;;;;;;;4.50;3.30;;;;;;;28.22;47.91;99133.20;137409;1275;22242;-81
2023/09/17 12:16:55;;;;;;;3.50;2.60;;;;;;;27.87;47.52;99133.35;137322;1274;22386;-81
2023/09/17 12:20:20;;;;;;;2.80;2.60;;;;;;;27.53;47.50;99135.29;137446;1274;22285;-80
2023/09/17 12:23:36;;;;;;;3.50;3.20;;;;;;;27.58;47.81;99132.33;137553;1274;22776;-81
2023/09/17 12:26:54;;;;;;;3.40;3.10;;;;;;;27.62;47.80;99124.98;137569;1267;22999;-81
2023/09/17 12:29:56;;;;;;;3.30;2.90;;;;;;;27.50;48.03;99123.64;137447;1274;22230;-80
2023/09/17 12:32:59;;;;;;;3.80;3.50;;;;;;;27.36;48.74;99118.49;137435;1275;22232;-81
2023/09/17 12:36:02;;;;;;;3.50;3.10;;;;;;;27.07;49.52;99119.26;137404;1275;22524;-81
2023/09/17 12:39:04;;;;;;;4.60;3.10;;;;;;;26.79;50.36;99118.71;137433;1274;22155;-81
2023/09/17 12:42:07;;;;;;;6.20;3.60;;;;;;;26.51;51.22;99120.77;137444;1274;22408;-80
2023/09/17 12:45:10;;;;;;;8.30;3.60;;;;;;;26.52;51.86;99116.08;137252;1275;24593;-80
2023/09/17 12:48:13;;;;;;;3.60;3.20;;;;;;;26.58;51.87;99117.39;137357;1274;22198;-80
2023/09/17 12:51:15;;;;;;;;;;;;;;;26.60;52.15;99114.23;137362;1274;22497;-79
2023/09/17 12:54:19;;;;;;;3.70;3.30;;;;;;;26.60;52.39;99115.13;137341;1274;22170;-80
2023/09/17 12:57:22;;;;;;;5.50;3.10;;;;;;;26.67;52.66;99108.73;137450;1275;22337;-80
2023/09/17 13:00:24;;;;;;;7.50;3.20;;;;;;;26.78;52.29;99111.25;137377;1275;22553;-80
2023/09/17 13:03:26;;;;;;;3.70;3.30;;;;;;;26.83;52.30;99113.64;137268;1275;22604;-80
2023/09/17 13:06:29;;;;;;;3.50;3.20;;;;;;;26.84;52.17;99113.61;137431;1275;22660;-81
2023/09/17 13:09:32;;;;;;;4.60;3.40;;;;;;;26.73;52.05;99112.94;137529;1275;22181;-81
2023/09/17 13:12:35;;;;;;;;;;;;;;;26.73;52.46;99111.88;137444;1275;22518;-81
2023/09/17 13:15:37;;;;;;;4.70;3.20;;;;;;;26.76;52.27;99115.08;137602;1274;22761;-81
2023/09/17 13:18:40;;;;;;;4.30;3.80;;;;;;;26.80;52.39;99115.40;137579;1275;22255;-81
2023/09/17 13:21:42;;;;;;;3.40;3.10;;;;;;;26.77;52.29;99115.77;137572;1274;22281;-80
2023/09/17 13:24:45;;;;;;;3.30;3.00;;;;;;;26.79;52.29;99112.81;137577;1274;22115;-80
2023/09/17 13:27:47;;;;;;;3.40;3.10;;;;;;;26.76;52.07;99113.51;137561;1275;22298;-80
2023/09/17 13:30:51;;;;;;;3.80;3.50;;;;;;;26.80;52.25;99111.50;137573;1274;22173;-80
2023/09/17 13:33:53;;;;;;;3.30;3.00;;;;;;;26.80;51.97;99111.48;137531;1275;22063;-80
2023/09/17 13:36:56;;;;;;;5.50;3.10;;;;;;;26.80;52.18;99112.73;137570;1274;22121;-81
2023/09/17 13:39:59;;;;;;;4.70;3.40;;;;;;;26.77;52.21;99111.13;137595;1275;22113;-79
2023/09/17 13:43:01;;;;;;;4.10;3.70;;;;;;;26.65;52.06;99109.91;137584;1274;22302;-81
2023/09/17 13:46:04;;;;;;;3.30;3.10;;;;;;;26.46;53.18;99109.78;137608;1275;22430;-80
2023/09/17 13:49:07;;;;;;;3.70;3.40;;;;;;;26.47;53.60;99110.80;137544;1275;22112;-80
2023/09/17 13:52:09;;;;;;;3.10;2.90;;;;;;;26.54;53.16;99109.01;137571;1274;22104;-80
2023/09/17 13:55:12;;;;;;;6.70;3.40;;;;;;;26.52;53.12;99111.06;137543;1274;22358;-80